FW2514 Weather Reports


Display with metric or nautical units.
time (UTC)temp
F
wind
direction
speed
MPH
gust
MPH
rain 1hr
in
rain 24hr
in
rain mn
in
humidity
%
barometer
mb
20240224131554 41 360 0.0 3.0 0.00 0.07 0.00 48 1009.4
20240224130050 41 360 2.0 5.0 0.00 0.12 0.00 48 1009.3
20240224124548 40 360 0.0 3.0 0.00 0.12 0.00 48 1009.1
20240224123101 40 360 0.0 1.0 0.00 0.12 0.00 46 1008.9
20240224121545 40 271 0.0 2.0 0.00 0.12 0.00 45 1008.8
20240224120043 41 360 0.0 0.0 0.00 0.16 0.00 45 1008.7
20240224114546 42 360 0.0 1.0 0.00 0.16 0.00 42 1008.5
20240224113043 42 360 0.0 4.0 0.00 0.16 0.00 42 1008.3
20240224111542 41 276 0.0 2.0 0.00 0.16 0.00 47 1008.3
20240224110038 41 360 1.0 3.0 0.00 0.17 0.00 45 1007.9
20240224104541 41 360 1.0 3.0 0.00 0.17 0.00 46 1008.0
20240224103026 42 360 0.0 2.0 0.00 0.17 0.00 44 1008.0
20240224101525 42 360 0.0 2.0 0.00 0.17 0.00 42 1007.9
20240224100025 44 360 1.0 4.0 0.00 0.17 0.00 41 1007.7
20240224094523 44 360 1.0 3.0 0.00 0.17 0.00 40 1007.7
20240224093022 44 360 1.0 3.0 0.00 0.17 0.00 39 1007.6
20240224091523 43 360 2.0 5.0 0.00 0.17 0.00 42 1007.4
20240224090019 42 360 2.0 4.0 0.00 0.17 0.00 46 1007.3
20240224084519 42 360 0.0 2.0 0.00 0.17 0.00 50 1007.5
20240224083017 42 360 0.0 2.0 0.00 0.17 0.00 51 1007.5
20240224081522 43 360 0.0 1.0 0.00 0.17 0.00 51 1007.5
20240224080018 44 360 0.0 3.0 0.00 0.17 0.00 50 1007.4
20240224074512 44 360 0.0 3.0 0.00 0.17 0.00 49 1007.4
20240224073019 43 360 2.0 4.0 0.00 0.17 0.00 52 1007.4
20240224071509 45 242 1.0 5.0 0.00 0.17 0.00 49 1007.2
20240224070014 45 278 1.0 3.0 0.00 0.17 0.00 49 1007.0
20240224064503 45 278 1.0 6.0 0.00 0.17 0.00 48 1006.9
20240224063004 46 298 3.0 8.0 0.00 0.17 0.00 49 1006.9
20240224061501 46 277 3.0 6.0 0.00 0.17 0.00 50 1006.8
20240224060058 46 270 1.0 7.0 0.00 0.17 0.00 49 1006.9
20240224054556 46 254 3.0 5.0 0.00 0.17 0.00 49 1006.7
20240224053052 47 277 2.0 5.0 0.00 0.17 0.00 48 1006.5
20240224051552 47 261 1.0 3.0 0.00 0.17 0.00 48 1006.4
20240224050050 47 260 2.0 4.0 0.00 0.17 0.17 48 1006.3
20240224044547 46 271 0.0 3.0 0.00 0.17 0.17 49 1006.4
20240224043103 47 273 1.0 6.0 0.00 0.17 0.17 48 1006.3
20240224041552 47 272 1.0 3.0 0.00 0.17 0.17 47 1006.1
20240224040057 48 273 0.0 0.0 0.00 0.17 0.17 46 1006.2
20240224034547 48 273 0.0 3.0 0.00 0.17 0.17 45 1006.0
20240224033040 49 273 1.0 3.0 0.00 0.17 0.17 43 1005.9
20240224031556 49 272 1.0 4.0 0.00 0.17 0.17 43 1005.9
20240224030039 49 238 1.0 3.0 0.00 0.17 0.17 43 1005.9
20240224024539 49 238 1.0 3.0 0.00 0.17 0.17 42 1005.8
20240224023038 50 238 0.0 3.0 0.00 0.17 0.17 40 1005.8
20240224021548 50 238 1.0 5.0 0.00 0.17 0.17 40 1005.5
20240224020051 50 249 0.0 0.0 0.00 0.17 0.17 40 1005.4
20240224014537 50 249 0.0 0.0 0.00 0.17 0.17 39 1005.3
20240224013037 51 249 0.0 0.0 0.00 0.17 0.17 38 1005.3
20240224011543 51 249 0.0 0.0 0.00 0.17 0.17 38 1005.4
20240224010041 51 249 0.0 0.0 0.00 0.17 0.17 38 1005.1
20240224004535 51 249 0.0 1.0 0.00 0.17 0.17 37 1005.0
20240224003037 51 249 0.0 4.0 0.00 0.17 0.17 40 1004.9
20240224001537 55 290 0.0 1.0 0.00 0.17 0.17 33 1004.6
20240224000040 55 290 0.0 1.0 0.00 0.17 0.17 32 1004.5
20240223234542 56 360 0.0 1.0 0.00 0.17 0.17 32 1004.5
20240223233034 57 360 1.0 5.0 0.00 0.17 0.17 29 1004.4
20240223231542 58 360 2.0 10.0 0.00 0.17 0.17 27 1004.2
20240223230033 59 360 3.0 14.0 0.00 0.17 0.17 27 1003.9
20240223224532 60 264 3.0 9.0 0.00 0.17 0.17 27 1003.7
20240223223035 61 286 7.0 15.0 0.00 0.17 0.17 26 1003.7
20240223221534 61 263 6.0 13.0 0.00 0.17 0.17 27 1003.5
20240223220052 62 292 5.0 16.0 0.00 0.17 0.17 28 1003.2
20240223214539 61 344 4.0 17.0 0.00 0.17 0.17 29 1002.8
20240223213030 62 342 8.0 15.0 0.00 0.17 0.17 29 1002.7
20240223211535 62 316 5.0 12.0 0.00 0.17 0.17 32 1002.4
20240223210039 61 291 4.0 9.0 0.00 0.17 0.17 36 1002.3
20240223204526 60 288 5.0 11.0 0.00 0.17 0.17 37 1002.3
20240223203025 61 294 2.0 10.0 0.00 0.17 0.17 37 1002.2
20240223201524 62 330 6.0 12.0 0.00 0.17 0.17 36 1002.2
20240223200024 61 319 3.0 13.0 0.00 0.17 0.17 39 1002.1
20240223194538 61 34 3.0 10.0 0.00 0.17 0.17 43 1002.0
20240223193020 59 290 8.0 14.0 0.00 0.17 0.17 44 1002.0
20240223191516 58 360 3.0 10.0 0.00 0.17 0.17 53 1001.9
20240223190014 58 290 3.0 12.0 0.00 0.17 0.17 55 1001.9
20240223184511 57 360 3.0 6.0 0.00 0.17 0.17 65 1001.7
20240223183012 55 265 3.0 7.0 0.00 0.17 0.17 69 1001.6
20240223181506 54 360 4.0 8.0 0.01 0.17 0.17 69 1001.9
20240223180004 54 360 2.0 8.0 0.02 0.17 0.17 70 1001.9
20240223174502 54 360 2.0 6.0 0.05 0.17 0.17 70 1001.9
20240223173003 54 360 3.0 5.0 0.06 0.17 0.17 70 1001.8
20240223171502 54 360 2.0 5.0 0.05 0.16 0.16 70 1002.1
20240223170003 54 360 2.0 5.0 0.04 0.15 0.15 70 1002.3
20240223164502 54 360 3.0 5.0 0.02 0.13 0.13 70 1002.2
20240223163002 54 360 3.0 6.0 0.00 0.11 0.11 69 1002.0
20240223161501 54 360 2.0 6.0 0.00 0.11 0.11 69 1001.9
20240223160006 54 360 3.0 7.0 0.00 0.11 0.11 70 1001.7
20240223154601 54 217 4.0 8.0 0.00 0.11 0.11 71 1001.7
20240223154502 54 228 3.0 7.0 0.00 0.11 0.11 71 1001.7
20240223153059 53 225 3.0 6.0 0.00 0.11 0.11 72 1001.6
20240223151606 52 259 3.0 6.0 0.00 0.11 0.11 72 1001.7
20240223150100 52 253 2.0 7.0 0.00 0.11 0.11 72 1001.7
20240223144602 52 256 3.0 8.0 0.00 0.11 0.11 72 1001.8
20240223143057 51 244 3.0 8.0 0.00 0.11 0.11 72 1001.8
20240223141557 51 297 3.0 10.0 0.00 0.11 0.11 72 1002.0
20240223140057 51 251 4.0 9.0 0.01 0.11 0.11 72 1001.6
20240223134555 50 181 1.0 4.0 0.04 0.11 0.11 72 1000.4
20240223133103 50 207 0.0 4.0 0.05 0.11 0.11 72 1000.7